Time;durP1;ratioP1;P1;durP2;ratioP2;P2;SDS_P1;SDS_P2;PMS_P1;PMS_P2;Temp;Humidity;BMP_temperature;BMP_pressure;BME280_temperature;BME280_humidity;BME280_pressure;Samples;Min_cycle;Max_cycle;Signal;HPM_P1;HPM_P2
2023/09/20 00:02:13;;;;;;;11.00;2.67;;;;;;;;;;5054357;28;20437;-46
2023/09/20 00:04:42;;;;;;;8.93;2.13;;;;;;;;;;5054691;28;20044;-49
2023/09/20 00:07:11;;;;;;;9.70;2.07;;;;;;;;;;5054104;28;20044;-47
2023/09/20 00:09:39;;;;;;;9.73;2.30;;;;;;;;;;5064915;28;20040;-49
2023/09/20 00:12:07;;;;;;;10.27;2.17;;;;;;;;;;5052399;28;20270;-47
2023/09/20 00:14:35;;;;;;;11.32;2.13;;;;;;;;;;5057410;28;20032;-45
2023/09/20 00:17:04;;;;;;;8.52;1.92;;;;;;;;;;5050769;28;20110;-46
2023/09/20 00:19:32;;;;;;;10.53;2.17;;;;;;;;;;5047428;28;20044;-48
2023/09/20 00:22:17;;;;;;;11.00;2.00;;;;;;;;;;5062565;28;20040;-47
2023/09/20 00:24:45;;;;;;;9.98;2.00;;;;;;;;;;5055132;28;20587;-47
2023/09/20 00:27:13;;;;;;;10.45;2.20;;;;;;;;;;5060754;28;20040;-47
2023/09/20 00:29:40;;;;;;;11.25;2.65;;;;;;;;;;5046248;28;20046;-48
2023/09/20 00:32:12;;;;;;;7.20;1.97;;;;;;;;;;5061225;28;20036;-50
2023/09/20 00:34:40;;;;;;;10.18;2.88;;;;;;;;;;5056827;28;20804;-47
2023/09/20 00:37:08;;;;;;;9.38;2.67;;;;;;;;;;5053323;28;20538;-48
2023/09/20 00:39:38;;;;;;;10.27;2.55;;;;;;;;;;5033766;28;20133;-46
2023/09/20 00:42:06;;;;;;;7.85;1.77;;;;;;;;;;5058463;28;20497;-46
2023/09/20 00:44:35;;;;;;;11.80;2.90;;;;;;;;;;5044129;28;20044;-49
2023/09/20 00:47:04;;;;;;;14.98;2.63;;;;;;;;;;5056561;28;20361;-47
2023/09/20 00:49:34;;;;;;;14.25;2.90;;;;;;;;;;5056224;28;20508;-47
2023/09/20 00:52:03;;;;;;;12.40;2.78;;;;;;;;;;5051555;28;20048;-47
2023/09/20 00:54:31;;;;;;;14.60;2.97;;;;;;;;;;5057872;28;20885;-47
2023/09/20 00:56:59;;;;;;;9.97;2.60;;;;;;;;;;5060200;28;20040;-46
2023/09/20 00:59:27;;;;;;;14.18;2.92;;;;;;;;;;5058371;28;20128;-48
2023/09/20 01:01:55;;;;;;;6.40;2.10;;;;;;;;;;5060425;28;20041;-47
2023/09/20 01:04:23;;;;;;;10.52;2.50;;;;;;;;;;5048338;28;20040;-47
2023/09/20 01:06:52;;;;;;;9.38;1.95;;;;;;;;;;5063532;28;20032;-50
2023/09/20 01:09:22;;;;;;;12.60;2.53;;;;;;;;;;5040284;28;20108;-47
2023/09/20 01:11:53;;;;;;;12.40;2.60;;;;;;;;;;5070868;28;20044;-49
2023/09/20 01:14:23;;;;;;;9.75;2.60;;;;;;;;;;5052785;28;20028;-48
2023/09/20 01:16:53;;;;;;;13.68;2.10;;;;;;;;;;5041358;28;20047;-47
2023/09/20 01:19:22;;;;;;;13.27;2.33;;;;;;;;;;5060223;28;20032;-47
2023/09/20 01:21:51;;;;;;;13.80;2.67;;;;;;;;;;5044417;28;20110;-47
2023/09/20 01:24:20;;;;;;;12.48;3.00;;;;;;;;;;5060316;28;20563;-46
2023/09/20 01:26:49;;;;;;;12.60;2.83;;;;;;;;;;5043556;28;20757;-46
2023/09/20 01:29:17;;;;;;;10.70;2.40;;;;;;;;;;5037249;28;20048;-50
2023/09/20 01:31:47;;;;;;;9.95;2.03;;;;;;;;;;5044692;28;20047;-49
2023/09/20 01:34:15;;;;;;;10.30;2.13;;;;;;;;;;5057150;28;20071;-47
2023/09/20 01:36:43;;;;;;;11.10;1.88;;;;;;;;;;5047748;28;20041;-47
2023/09/20 01:39:12;;;;;;;10.40;2.47;;;;;;;;;;5020166;28;20051;-47
2023/09/20 01:41:40;;;;;;;12.60;2.53;;;;;;;;;;5051406;28;20058;-46
2023/09/20 01:44:08;;;;;;;9.63;2.20;;;;;;;;;;5055774;28;20040;-46
2023/09/20 01:46:36;;;;;;;11.00;2.90;;;;;;;;;;5046141;28;20048;-47
2023/09/20 01:49:05;;;;;;;14.57;3.13;;;;;;;;;;5060313;28;20157;-46
2023/09/20 01:51:34;;;;;;;11.93;2.78;;;;;;;;;;5060580;28;20043;-46
2023/09/20 01:54:03;;;;;;;11.38;2.33;;;;;;;;;;5072040;28;20047;-46
2023/09/20 01:56:33;;;;;;;11.35;3.20;;;;;;;;;;5038493;28;20032;-46
2023/09/20 01:59:00;;;;;;;12.57;3.20;;;;;;;;;;5058660;28;20058;-47
2023/09/20 02:01:29;;;;;;;12.85;3.33;;;;;;;;;;5052910;28;20101;-48
2023/09/20 02:03:57;;;;;;;10.73;3.33;;;;;;;;;;5054909;28;20040;-47
2023/09/20 02:06:26;;;;;;;11.13;3.28;;;;;;;;;;5048158;28;20089;-49
2023/09/20 02:08:53;;;;;;;13.10;3.38;;;;;;;;;;5063957;28;20037;-47
2023/09/20 02:11:21;;;;;;;19.17;4.37;;;;;;;;;;5051590;28;20098;-48
2023/09/20 02:13:50;;;;;;;13.50;3.80;;;;;;;;;;5046194;28;21101;-46
2023/09/20 02:16:18;;;;;;;12.32;2.95;;;;;;;;;;5062097;28;20048;-47
2023/09/20 02:18:48;;;;;;;10.85;3.67;;;;;;;;;;5049315;28;20055;-46
2023/09/20 02:21:16;;;;;;;10.20;3.15;;;;;;;;;;5049286;28;20441;-46
2023/09/20 02:23:44;;;;;;;17.07;3.87;;;;;;;;;;5057519;28;20040;-49
2023/09/20 02:26:12;;;;;;;13.07;3.45;;;;;;;;;;5052822;28;20047;-47
2023/09/20 02:28:40;;;;;;;10.93;3.72;;;;;;;;;;5065800;28;20054;-47
2023/09/20 02:31:11;;;;;;;13.88;3.40;;;;;;;;;;5049314;28;20441;-48
2023/09/20 02:33:39;;;;;;;18.50;3.80;;;;;;;;;;5060584;28;20097;-46
2023/09/20 02:36:07;;;;;;;14.10;3.73;;;;;;;;;;5057246;28;20051;-50
2023/09/20 02:38:37;;;;;;;17.30;4.00;;;;;;;;;;5062367;28;20456;-50
2023/09/20 02:41:05;;;;;;;10.35;2.92;;;;;;;;;;5066851;28;20487;-47
2023/09/20 02:43:32;;;;;;;11.05;3.58;;;;;;;;;;5051992;28;20128;-48
2023/09/20 02:46:05;;;;;;;13.70;4.07;;;;;;;;;;5066410;28;20040;-46
2023/09/20 02:48:35;;;;;;;11.03;3.37;;;;;;;;;;5055487;28;20119;-47
2023/09/20 02:51:05;;;;;;;16.45;4.45;;;;;;;;;;5052817;28;20807;-49
2023/09/20 02:53:35;;;;;;;15.25;4.28;;;;;;;;;;5061589;28;20037;-49
2023/09/20 02:56:05;;;;;;;14.73;4.45;;;;;;;;;;5055428;28;20405;-47
2023/09/20 02:58:37;;;;;;;22.85;4.97;;;;;;;;;;5033570;28;20525;-48
2023/09/20 03:01:08;;;;;;;14.80;4.97;;;;;;;;;;5055566;28;20079;-47
2023/09/20 03:03:38;;;;;;;19.95;5.07;;;;;;;;;;5050197;28;20036;-44
2023/09/20 03:06:09;;;;;;;22.02;5.43;;;;;;;;;;5056178;28;20044;-47
2023/09/20 03:08:44;;;;;;;20.88;6.10;;;;;;;;;;5060977;28;20131;-48
2023/09/20 03:11:19;;;;;;;20.33;5.53;;;;;;;;;;5065950;28;20028;-48
2023/09/20 03:13:47;;;;;;;20.37;6.03;;;;;;;;;;5048471;28;20127;-47
2023/09/20 03:16:17;;;;;;;19.33;5.07;;;;;;;;;;5051915;28;20128;-48
2023/09/20 03:18:46;;;;;;;17.70;4.55;;;;;;;;;;5062931;28;20040;-46
2023/09/20 03:21:14;;;;;;;16.73;5.18;;;;;;;;;;5056322;28;20796;-47
2023/09/20 03:23:44;;;;;;;19.58;5.18;;;;;;;;;;5057475;28;20067;-46
2023/09/20 03:26:16;;;;;;;17.70;5.47;;;;;;;;;;5054694;28;20044;-46
2023/09/20 03:28:46;;;;;;;20.67;5.85;;;;;;;;;;5063695;28;20046;-48
2023/09/20 03:31:15;;;;;;;23.25;6.50;;;;;;;;;;5057649;28;20047;-47
2023/09/20 03:33:48;;;;;;;21.98;5.85;;;;;;;;;;5057895;28;20509;-52
2023/09/20 03:36:17;;;;;;;16.17;6.18;;;;;;;;;;5071726;28;20040;-47
2023/09/20 03:38:45;;;;;;;24.50;6.50;;;;;;;;;;5046253;28;22637;-46
2023/09/20 03:41:14;;;;;;;20.42;6.22;;;;;;;;;;5048056;28;20437;-51
2023/09/20 03:43:45;;;;;;;19.30;6.47;;;;;;;;;;5052139;28;20487;-46
2023/09/20 03:46:13;;;;;;;18.45;6.97;;;;;;;;;;5056924;28;20043;-49
2023/09/20 03:48:42;;;;;;;19.85;5.95;;;;;;;;;;5034410;28;20105;-47
2023/09/20 03:51:15;;;;;;;24.80;6.20;;;;;;;;;;5058856;28;20414;-48
2023/09/20 03:53:43;;;;;;;21.50;5.80;;;;;;;;;;5046113;28;20041;-48
2023/09/20 03:56:12;;;;;;;19.48;6.20;;;;;;;;;;5050811;28;20043;-48
2023/09/20 03:58:39;;;;;;;19.45;5.97;;;;;;;;;;5058837;28;20060;-48
2023/09/20 04:01:08;;;;;;;25.42;6.80;;;;;;;;;;5060365;28;20127;-47
2023/09/20 04:03:36;;;;;;;24.77;7.47;;;;;;;;;;5055015;28;20123;-45
2023/09/20 04:06:04;;;;;;;25.25;7.03;;;;;;;;;;5060681;28;20041;-47
2023/09/20 04:08:33;;;;;;;24.83;7.60;;;;;;;;;;5053837;28;20206;-46
2023/09/20 04:11:02;;;;;;;20.75;5.75;;;;;;;;;;5076111;28;20094;-47
2023/09/20 04:13:31;;;;;;;24.50;7.47;;;;;;;;;;5044655;28;20032;-47
2023/09/20 04:15:59;;;;;;;21.43;6.30;;;;;;;;;;5058090;28;20037;-47
2023/09/20 04:18:27;;;;;;;19.38;6.93;;;;;;;;;;5057811;28;20718;-47
2023/09/20 04:20:55;;;;;;;19.77;6.10;;;;;;;;;;5055493;28;20044;-46
2023/09/20 04:23:22;;;;;;;22.52;7.07;;;;;;;;;;5060685;28;20494;-47
2023/09/20 04:25:52;;;;;;;19.10;5.63;;;;;;;;;;5057160;28;20466;-47
2023/09/20 04:28:20;;;;;;;24.03;6.57;;;;;;;;;;5047236;28;20041;-46
2023/09/20 04:30:47;;;;;;;25.23;7.90;;;;;;;;;;5063309;28;20032;-48
2023/09/20 04:33:17;;;;;;;15.75;6.13;;;;;;;;;;5067680;28;20044;-45
2023/09/20 04:35:47;;;;;;;22.52;5.57;;;;;;;;;;5054176;28;20313;-46
2023/09/20 04:38:15;;;;;;;22.13;6.45;;;;;;;;;;5066389;28;20111;-47
2023/09/20 04:40:43;;;;;;;21.87;6.23;;;;;;;;;;5057071;28;20032;-49
2023/09/20 04:43:14;;;;;;;22.77;7.32;;;;;;;;;;5061454;28;20284;-48
2023/09/20 04:45:43;;;;;;;22.75;6.70;;;;;;;;;;5057523;28;20053;-47
2023/09/20 04:48:10;;;;;;;21.95;6.32;;;;;;;;;;5043615;28;21092;-47
2023/09/20 04:50:38;;;;;;;19.55;5.97;;;;;;;;;;5037236;28;20127;-47
2023/09/20 04:53:06;;;;;;;23.90;6.63;;;;;;;;;;5051835;28;20036;-46
2023/09/20 04:55:38;;;;;;;23.42;6.72;;;;;;;;;;5048408;28;20495;-50
2023/09/20 04:58:06;;;;;;;18.60;5.72;;;;;;;;;;5020302;28;20037;-51
2023/09/20 05:00:37;;;;;;;19.45;6.13;;;;;;;;;;5064654;28;20050;-47
2023/09/20 05:03:05;;;;;;;19.55;5.72;;;;;;;;;;5051265;28;20043;-47
2023/09/20 05:05:34;;;;;;;24.27;7.60;;;;;;;;;;5044949;28;20833;-47
2023/09/20 05:08:03;;;;;;;17.92;5.70;;;;;;;;;;5045624;28;20037;-47
2023/09/20 05:10:32;;;;;;;29.27;7.63;;;;;;;;;;5074189;27;20458;-46
2023/09/20 05:13:00;;;;;;;20.15;6.03;;;;;;;;;;5040484;28;23952;-46
2023/09/20 05:15:27;;;;;;;20.95;6.38;;;;;;;;;;5041748;28;20051;-47
2023/09/20 05:17:57;;;;;;;19.73;6.50;;;;;;;;;;5055029;28;20058;-48
2023/09/20 05:20:26;;;;;;;19.80;5.97;;;;;;;;;;5033117;28;20491;-47
2023/09/20 05:22:54;;;;;;;17.08;5.15;;;;;;;;;;5035350;28;20522;-47
2023/09/20 05:25:22;;;;;;;25.48;6.30;;;;;;;;;;5053865;28;20044;-47
2023/09/20 05:27:51;;;;;;;16.63;5.70;;;;;;;;;;5035412;28;20035;-51
2023/09/20 05:30:19;;;;;;;22.87;6.87;;;;;;;;;;5055806;28;20506;-46
2023/09/20 05:32:50;;;;;;;13.73;5.18;;;;;;;;;;5033230;28;20404;-49
2023/09/20 05:35:20;;;;;;;19.80;5.45;;;;;;;;;;5055761;28;20050;-46
2023/09/20 05:37:48;;;;;;;15.60;5.78;;;;;;;;;;5040398;28;20040;-48
2023/09/20 05:40:18;;;;;;;24.83;6.20;;;;;;;;;;5047008;28;20448;-47
2023/09/20 05:42:46;;;;;;;21.43;6.13;;;;;;;;;;5048714;28;20047;-46
2023/09/20 05:45:14;;;;;;;18.13;4.70;;;;;;;;;;5049200;28;20040;-48
2023/09/20 05:47:45;;;;;;;23.77;5.88;;;;;;;;;;5048147;28;20040;-47
2023/09/20 05:50:23;;;;;;;16.63;4.65;;;;;;;;;;5061096;28;20044;-45
2023/09/20 05:52:52;;;;;;;24.13;6.28;;;;;;;;;;5034347;28;20040;-47
2023/09/20 05:55:22;;;;;;;20.20;6.00;;;;;;;;;;5058584;28;20238;-50
2023/09/20 05:57:53;;;;;;;16.02;5.68;;;;;;;;;;5035538;28;20066;-46
2023/09/20 06:00:22;;;;;;;17.52;5.82;;;;;;;;;;5057157;28;20055;-51
2023/09/20 06:02:50;;;;;;;24.50;6.18;;;;;;;;;;5047173;28;20086;-51
2023/09/20 06:05:20;;;;;;;20.20;5.32;;;;;;;;;;5044523;28;20161;-49
2023/09/20 06:07:48;;;;;;;14.93;5.30;;;;;;;;;;5038833;28;20715;-52
2023/09/20 06:10:17;;;;;;;17.13;4.93;;;;;;;;;;5049136;28;20557;-48
2023/09/20 06:12:45;;;;;;;21.65;5.53;;;;;;;;;;5051791;28;20237;-49
2023/09/20 06:15:13;;;;;;;20.63;5.90;;;;;;;;;;5057885;28;20060;-49
2023/09/20 06:17:42;;;;;;;19.88;5.47;;;;;;;;;;5045648;28;20176;-47
2023/09/20 06:20:12;;;;;;;23.87;6.13;;;;;;;;;;5039649;28;20036;-50
2023/09/20 06:22:42;;;;;;;17.20;5.30;;;;;;;;;;5056148;28;20089;-50
2023/09/20 06:25:11;;;;;;;18.00;5.03;;;;;;;;;;5054444;28;20108;-47
2023/09/20 06:27:40;;;;;;;16.85;5.18;;;;;;;;;;5041571;28;20505;-47
2023/09/20 06:30:12;;;;;;;21.70;6.10;;;;;;;;;;5053820;28;20036;-48
2023/09/20 06:32:40;;;;;;;18.63;5.63;;;;;;;;;;5045636;28;20041;-46
2023/09/20 06:35:09;;;;;;;18.25;5.15;;;;;;;;;;5051029;28;20040;-47
2023/09/20 06:37:37;;;;;;;29.45;6.82;;;;;;;;;;5043375;28;20036;-48
2023/09/20 06:40:15;;;;;;;12.77;4.63;;;;;;;;;;5063681;28;20043;-48
2023/09/20 06:42:44;;;;;;;18.73;4.90;;;;;;;;;;5048534;28;20044;-50
2023/09/20 06:45:12;;;;;;;16.23;4.97;;;;;;;;;;5048877;28;20338;-46
2023/09/20 06:47:40;;;;;;;18.35;4.93;;;;;;;;;;5057182;28;20139;-46
2023/09/20 06:50:12;;;;;;;25.70;5.70;;;;;;;;;;5041924;28;20045;-48
2023/09/20 06:52:42;;;;;;;23.38;5.68;;;;;;;;;;5035251;28;20032;-46
2023/09/20 06:55:13;;;;;;;22.33;5.13;;;;;;;;;;5035993;28;20043;-49
2023/09/20 06:57:42;;;;;;;20.90;4.83;;;;;;;;;;5020717;28;20063;-47
2023/09/20 07:00:21;;;;;;;17.25;4.70;;;;;;;;;;5016543;28;20048;-47
2023/09/20 07:02:52;;;;;;;18.60;4.38;;;;;;;;;;5037637;28;20135;-46
2023/09/20 07:05:24;;;;;;;17.65;5.15;;;;;;;;;;5046383;28;20060;-47
2023/09/20 07:07:54;;;;;;;17.90;4.28;;;;;;;;;;5049047;28;20033;-47
2023/09/20 07:10:23;;;;;;;20.50;5.43;;;;;;;;;;5059443;28;20063;-47
2023/09/20 07:12:53;;;;;;;22.58;5.30;;;;;;;;;;5050208;28;20222;-46
2023/09/20 07:15:24;;;;;;;21.48;5.68;;;;;;;;;;5062196;28;20043;-48
2023/09/20 07:18:00;;;;;;;14.98;4.05;;;;;;;;;;5044642;28;20127;-49
2023/09/20 07:20:29;;;;;;;20.00;4.70;;;;;;;;;;5032891;28;20040;-49
2023/09/20 07:22:58;;;;;;;21.97;4.70;;;;;;;;;;5039516;28;20044;-47
2023/09/20 07:25:28;;;;;;;21.52;5.63;;;;;;;;;;5037071;28;20460;-48
2023/09/20 07:27:58;;;;;;;17.40;4.63;;;;;;;;;;5051249;28;20041;-49
2023/09/20 07:30:31;;;;;;;22.83;5.25;;;;;;;;;;5053536;28;20036;-48
2023/09/20 07:33:01;;;;;;;19.83;5.05;;;;;;;;;;5051419;28;20123;-46
2023/09/20 07:35:46;;;;;;;20.17;5.07;;;;;;;;;;5052703;28;20039;-47
2023/09/20 07:38:24;;;;;;;14.23;4.68;;;;;;;;;;5052315;28;20501;-47
2023/09/20 07:41:13;;;;;;;30.35;5.30;;;;;;;;;;5044017;28;20515;-48
2023/09/20 07:43:43;;;;;;;20.15;5.60;;;;;;;;;;4344436;28;10021614;-49
2023/09/20 07:46:13;;;;;;;22.50;5.50;;;;;;;;;;5022000;28;20562;-48
2023/09/20 07:48:48;;;;;;;18.15;5.47;;;;;;;;;;5046592;28;20044;-49
2023/09/20 07:51:23;;;;;;;19.60;5.47;;;;;;;;;;5046244;28;20060;-48
2023/09/20 07:53:54;;;;;;;16.90;5.22;;;;;;;;;;5045171;28;20411;-50
2023/09/20 07:56:26;;;;;;;22.98;4.85;;;;;;;;;;5050831;28;20040;-49
2023/09/20 07:58:54;;;;;;;17.50;4.50;;;;;;;;;;4685303;28;9999906;-49
2023/09/20 08:01:24;;;;;;;17.27;5.20;;;;;;;;;;5014560;28;20098;-49
2023/09/20 08:03:58;;;;;;;14.43;3.55;;;;;;;;;;5034015;28;20071;-48
2023/09/20 08:06:29;;;;;;;16.25;4.50;;;;;;;;;;5032485;28;20040;-49
2023/09/20 08:08:57;;;;;;;24.75;5.82;;;;;;;;;;5043343;28;20131;-47
2023/09/20 08:11:26;;;;;;;18.25;4.65;;;;;;;;;;5032298;28;20411;-48
2023/09/20 08:13:56;;;;;;;16.23;3.80;;;;;;;;;;5048832;28;20040;-49
2023/09/20 08:16:25;;;;;;;14.35;4.65;;;;;;;;;;5032213;28;20043;-50
2023/09/20 08:19:21;;;;;;;17.10;4.30;;;;;;;;;;5003694;28;20040;-47
2023/09/20 08:21:50;;;;;;;19.60;4.30;;;;;;;;;;5032983;28;20659;-50
2023/09/20 09:00:34;;;;;;;23.20;5.05;;;;;;;;;;5037421;28;20170;-47
2023/09/20 09:03:03;;;;;;;16.20;4.28;;;;;;;;;;5027411;28;20052;-47
2023/09/20 09:05:32;;;;;;;19.10;5.38;;;;;;;;;;5040932;28;20032;-47
2023/09/20 09:08:01;;;;;;;17.43;5.43;;;;;;;;;;5032094;28;20052;-52
2023/09/20 09:10:29;;;;;;;21.88;5.22;;;;;;;;;;5039175;28;20036;-50
2023/09/20 09:12:57;;;;;;;18.48;5.13;;;;;;;;;;5030619;28;20043;-49
2023/09/20 09:15:26;;;;;;;17.75;5.30;;;;;;;;;;5043870;28;20055;-51
2023/09/20 09:17:56;;;;;;;23.35;5.13;;;;;;;;;;5026588;28;20036;-47
2023/09/20 09:20:29;;;;;;;20.73;4.77;;;;;;;;;;5032381;28;20067;-49
2023/09/20 09:22:58;;;;;;;17.88;5.00;;;;;;;;;;5041029;28;20174;-48
2023/09/20 09:25:29;;;;;;;15.77;4.88;;;;;;;;;;5037605;28;20044;-47
2023/09/20 09:27:56;;;;;;;20.50;4.97;;;;;;;;;;5039519;28;20661;-44
2023/09/20 09:30:24;;;;;;;18.50;5.20;;;;;;;;;;5028849;28;21244;-49
2023/09/20 09:32:58;;;;;;;20.90;4.90;;;;;;;;;;5046052;28;20051;-49
2023/09/20 09:35:27;;;;;;;17.08;5.20;;;;;;;;;;5038354;28;20071;-47
2023/09/20 09:38:19;;;;;;;17.55;4.38;;;;;;;;;;5044281;28;20054;-47
2023/09/20 09:40:51;;;;;;;20.17;4.47;;;;;;;;;;5034139;28;20393;-48
2023/09/20 09:43:19;;;;;;;24.15;4.07;;;;;;;;;;5041088;28;20987;-48
2023/09/20 09:45:49;;;;;;;19.17;4.57;;;;;;;;;;5040270;28;20046;-49
2023/09/20 09:48:20;;;;;;;18.00;4.43;;;;;;;;;;5033364;28;20306;-51
2023/09/20 09:50:49;;;;;;;16.30;4.00;;;;;;;;;;5044947;28;20052;-49
2023/09/20 09:53:22;;;;;;;19.23;3.97;;;;;;;;;;5059613;28;20729;-49
2023/09/20 09:55:51;;;;;;;20.15;4.13;;;;;;;;;;5054026;28;20079;-49
2023/09/20 09:58:18;;;;;;;24.33;4.57;;;;;;;;;;5042522;28;20036;-48
2023/09/20 10:00:48;;;;;;;14.70;4.17;;;;;;;;;;4372801;28;9999915;-49
2023/09/20 10:03:24;;;;;;;16.08;4.40;;;;;;;;;;5051768;28;20048;-51
2023/09/20 10:05:56;;;;;;;15.10;3.65;;;;;;;;;;5043392;28;20438;-48
2023/09/20 10:08:28;;;;;;;17.67;3.20;;;;;;;;;;5059008;28;20141;-48
2023/09/20 10:11:00;;;;;;;16.58;3.65;;;;;;;;;;5053981;28;20481;-47
2023/09/20 10:13:29;;;;;;;17.20;3.70;;;;;;;;;;5047839;28;20040;-48
2023/09/20 10:16:00;;;;;;;17.27;3.33;;;;;;;;;;5047779;28;20037;-48
2023/09/20 10:18:32;;;;;;;12.50;3.33;;;;;;;;;;5055261;28;20667;-46
2023/09/20 10:21:10;;;;;;;12.30;3.35;;;;;;;;;;5054788;28;20356;-49
2023/09/20 10:23:42;;;;;;;11.70;3.58;;;;;;;;;;5040140;28;20040;-47
2023/09/20 10:26:14;;;;;;;13.33;3.37;;;;;;;;;;5060321;28;20466;-47
2023/09/20 10:28:44;;;;;;;16.67;3.60;;;;;;;;;;5042276;28;20032;-46
2023/09/20 10:31:17;;;;;;;12.52;3.00;;;;;;;;;;5053973;28;20047;-48
2023/09/20 10:33:48;;;;;;;13.05;3.03;;;;;;;;;;5042789;28;20044;-49
2023/09/20 10:36:20;;;;;;;10.63;2.90;;;;;;;;;;5051001;28;20544;-51
2023/09/20 10:38:49;;;;;;;10.83;3.20;;;;;;;;;;5061586;28;20044;-51
2023/09/20 10:41:17;;;;;;;14.32;3.70;;;;;;;;;;5053302;28;20047;-48
2023/09/20 10:43:46;;;;;;;9.77;3.25;;;;;;;;;;5044444;28;20052;-47
2023/09/20 10:46:17;;;;;;;15.10;3.25;;;;;;;;;;5045321;28;20671;-48
2023/09/20 10:48:49;;;;;;;9.50;2.47;;;;;;;;;;5033062;28;20078;-47
2023/09/20 10:51:37;;;;;;;10.27;1.93;;;;;;;;;;5058918;28;20066;-49
2023/09/20 10:54:17;;;;;;;11.32;2.90;;;;;;;;;;5053298;28;20052;-49
2023/09/20 10:56:55;;;;;;;10.68;2.72;;;;;;;;;;5054005;28;20063;-48
2023/09/20 10:59:24;;;;;;;11.65;2.30;;;;;;;;;;5064040;28;20068;-48
2023/09/20 11:02:12;;;;;;;10.52;2.40;;;;;;;;;;5053302;28;20499;-51
2023/09/20 11:04:41;;;;;;;8.33;1.80;;;;;;;;;;5055745;28;20552;-47
2023/09/20 11:07:09;;;;;;;9.70;2.00;;;;;;;;;;5048376;28;20037;-48
2023/09/20 11:09:39;;;;;;;6.70;1.42;;;;;;;;;;5043864;28;20192;-45
2023/09/20 11:12:08;;;;;;;8.05;2.13;;;;;;;;;;5054554;28;20044;-50
2023/09/20 11:14:37;;;;;;;11.95;2.28;;;;;;;;;;5044553;28;20090;-52
2023/09/20 11:17:09;;;;;;;8.37;1.80;;;;;;;;;;5069050;28;20032;-48
2023/09/20 11:19:38;;;;;;;7.25;1.45;;;;;;;;;;5044171;28;20056;-44
2023/09/20 11:22:06;;;;;;;8.70;1.40;;;;;;;;;;5051557;28;20044;-48
2023/09/20 11:24:36;;;;;;;8.68;1.88;;;;;;;;;;5047166;28;20048;-47
2023/09/20 11:27:05;;;;;;;6.90;1.40;;;;;;;;;;5051180;28;20340;-47
2023/09/20 11:29:35;;;;;;;7.60;1.53;;;;;;;;;;5050080;28;20040;-47
2023/09/20 11:32:03;;;;;;;6.75;1.83;;;;;;;;;;5063037;28;20044;-49
2023/09/20 11:34:43;;;;;;;5.75;1.75;;;;;;;;;;5057240;28;20044;-48
2023/09/20 11:37:14;;;;;;;9.05;1.13;;;;;;;;;;5040391;28;20628;-49
2023/09/20 11:39:43;;;;;;;6.20;1.35;;;;;;;;;;5062871;28;20056;-48
2023/09/20 11:42:22;;;;;;;5.93;1.10;;;;;;;;;;5049879;28;20064;-48
2023/09/20 11:44:56;;;;;;;5.78;1.35;;;;;;;;;;5054940;28;20109;-50
2023/09/20 11:47:48;;;;;;;9.85;1.60;;;;;;;;;;5055723;28;20040;-48
2023/09/20 11:50:16;;;;;;;7.95;1.23;;;;;;;;;;5055495;28;20061;-48
2023/09/20 11:52:45;;;;;;;9.80;1.88;;;;;;;;;;5049703;28;20186;-48
2023/09/20 11:55:13;;;;;;;6.23;1.30;;;;;;;;;;5060255;28;20399;-48
2023/09/20 11:57:45;;;;;;;6.68;1.38;;;;;;;;;;5048967;28;20406;-47
2023/09/20 12:00:16;;;;;;;8.05;1.52;;;;;;;;;;5055383;28;20039;-47
2023/09/20 12:02:44;;;;;;;6.50;1.13;;;;;;;;;;5057144;28;20047;-47
2023/09/20 12:05:13;;;;;;;5.95;1.55;;;;;;;;;;5062381;28;20124;-48
2023/09/20 12:07:55;;;;;;;6.20;1.10;;;;;;;;;;5050539;28;20493;-48
2023/09/20 12:10:23;;;;;;;6.45;1.30;;;;;;;;;;5056132;28;20108;-48
2023/09/20 12:12:52;;;;;;;6.88;1.80;;;;;;;;;;5053664;28;20316;-47
2023/09/20 12:15:22;;;;;;;3.97;0.80;;;;;;;;;;5060729;28;20602;-48
2023/09/20 12:17:53;;;;;;;3.67;0.73;;;;;;;;;;5039907;28;20059;-51
2023/09/20 12:20:22;;;;;;;7.13;0.83;;;;;;;;;;4350540;28;10000619;-48
2023/09/20 12:22:49;;;;;;;4.43;0.70;;;;;;;;;;5038321;28;20054;-47
2023/09/20 12:25:19;;;;;;;5.78;1.00;;;;;;;;;;5089374;27;20078;-46
2023/09/20 12:27:47;;;;;;;4.90;0.77;;;;;;;;;;5078101;27;20040;-49
2023/09/20 12:30:17;;;;;;;4.32;0.68;;;;;;;;;;5060850;28;20071;-48
2023/09/20 12:32:46;;;;;;;4.43;0.80;;;;;;;;;;5056297;28;20047;-47
2023/09/20 12:35:14;;;;;;;4.55;0.65;;;;;;;;;;5044925;28;20040;-48
2023/09/20 12:37:42;;;;;;;4.65;0.95;;;;;;;;;;5051342;28;20044;-50
2023/09/20 12:40:11;;;;;;;3.92;0.88;;;;;;;;;;5043170;28;20045;-48
2023/09/20 12:42:39;;;;;;;5.35;0.95;;;;;;;;;;5055912;28;20047;-48
2023/09/20 12:45:07;;;;;;;4.57;0.90;;;;;;;;;;5042905;28;20045;-51
2023/09/20 12:47:39;;;;;;;8.27;0.95;;;;;;;;;;5055307;28;20040;-47
2023/09/20 12:50:12;;;;;;;6.32;0.88;;;;;;;;;;5057930;28;20124;-50
2023/09/20 12:52:42;;;;;;;5.20;0.70;;;;;;;;;;5034902;28;20032;-49
2023/09/20 12:55:11;;;;;;;5.25;1.02;;;;;;;;;;5047410;28;20127;-49
2023/09/20 12:57:40;;;;;;;7.73;0.90;;;;;;;;;;4686969;27;10000449;-48
2023/09/20 13:00:16;;;;;;;5.75;1.08;;;;;;;;;;5032034;28;20593;-48
2023/09/20 13:02:59;;;;;;;7.80;0.90;;;;;;;;;;5039098;28;20495;-48
2023/09/20 13:05:28;;;;;;;7.65;1.23;;;;;;;;;;5056001;28;20045;-50
2023/09/20 13:07:59;;;;;;;6.43;1.35;;;;;;;;;;5044849;28;20040;-48
2023/09/20 13:10:30;;;;;;;6.50;0.90;;;;;;;;;;5051734;28;20044;-49
2023/09/20 13:12:58;;;;;;;8.20;0.98;;;;;;;;;;5053781;28;20059;-50
2023/09/20 13:15:26;;;;;;;6.43;1.08;;;;;;;;;;5060698;28;20028;-47
2023/09/20 13:17:56;;;;;;;4.03;0.85;;;;;;;;;;5053095;28;20055;-50
2023/09/20 13:20:27;;;;;;;6.28;1.02;;;;;;;;;;5056405;28;20032;-48
2023/09/20 13:22:56;;;;;;;4.20;0.87;;;;;;;;;;5041244;28;20044;-53
2023/09/20 13:25:27;;;;;;;7.00;1.20;;;;;;;;;;5049566;28;20119;-48
2023/09/20 13:27:55;;;;;;;4.97;0.88;;;;;;;;;;5035992;28;20621;-47
2023/09/20 13:30:23;;;;;;;4.72;1.02;;;;;;;;;;5051487;28;20040;-48
2023/09/20 13:32:51;;;;;;;4.32;0.90;;;;;;;;;;5065601;27;20475;-49
2023/09/20 13:35:19;;;;;;;4.60;0.77;;;;;;;;;;5056404;28;20039;-49
2023/09/20 13:37:48;;;;;;;4.88;1.23;;;;;;;;;;5061255;28;20047;-52
2023/09/20 13:40:18;;;;;;;4.85;1.00;;;;;;;;;;5049705;28;20032;-48
2023/09/20 13:42:46;;;;;;;5.20;0.70;;;;;;;;;;5051567;28;20050;-49
2023/09/20 13:45:16;;;;;;;4.85;0.73;;;;;;;;;;5054707;28;20048;-48
2023/09/20 13:47:49;;;;;;;4.83;0.70;;;;;;;;;;5046783;28;20041;-50
2023/09/20 13:50:18;;;;;;;4.75;0.70;;;;;;;;;;5061292;28;20052;-47
2023/09/20 13:52:49;;;;;;;4.90;0.60;;;;;;;;;;5034144;28;20048;-51
2023/09/20 13:55:18;;;;;;;5.18;0.60;;;;;;;;;;5045616;28;20036;-45
2023/09/20 13:57:58;;;;;;;5.13;0.80;;;;;;;;;;5031183;28;20312;-49
2023/09/20 14:00:28;;;;;;;5.07;0.90;;;;;;;;;;5040675;28;20032;-49
2023/09/20 14:02:56;;;;;;;4.82;0.80;;;;;;;;;;5035538;28;20119;-50
2023/09/20 14:05:25;;;;;;;4.63;0.95;;;;;;;;;;5038147;28;20110;-49
2023/09/20 14:07:56;;;;;;;3.92;0.70;;;;;;;;;;5043469;28;20070;-50
2023/09/20 14:10:31;;;;;;;4.97;0.68;;;;;;;;;;5035190;28;20479;-51
2023/09/20 14:12:59;;;;;;;3.43;0.70;;;;;;;;;;5035100;28;20127;-48
2023/09/20 14:15:29;;;;;;;4.95;0.73;;;;;;;;;;5045549;28;20524;-53
2023/09/20 14:18:00;;;;;;;3.97;0.65;;;;;;;;;;5037896;28;20071;-52
2023/09/20 14:20:29;;;;;;;3.75;0.50;;;;;;;;;;5026288;28;20048;-50
2023/09/20 14:22:57;;;;;;;3.50;0.70;;;;;;;;;;5040586;28;20488;-47
2023/09/20 14:25:28;;;;;;;6.20;0.90;;;;;;;;;;5049563;28;21616;-51
2023/09/20 14:28:13;;;;;;;3.25;0.38;;;;;;;;;;5052280;28;20073;-48
2023/09/20 14:30:42;;;;;;;4.70;0.77;;;;;;;;;;5033266;28;20063;-48
2023/09/20 14:33:11;;;;;;;3.88;0.50;;;;;;;;;;5051196;28;20063;-51
2023/09/20 14:35:39;;;;;;;5.55;0.70;;;;;;;;;;5041883;28;20485;-49
2023/09/20 14:38:07;;;;;;;4.00;0.80;;;;;;;;;;5031244;28;20119;-49
2023/09/20 14:40:36;;;;;;;4.05;0.90;;;;;;;;;;5038380;28;20040;-51
2023/09/20 14:43:05;;;;;;;4.30;0.60;;;;;;;;;;5050360;28;20406;-49
2023/09/20 14:45:32;;;;;;;2.80;0.60;;;;;;;;;;5051902;28;20051;-48
2023/09/20 14:48:01;;;;;;;3.60;0.60;;;;;;;;;;5044253;28;20036;-52
2023/09/20 14:50:30;;;;;;;3.30;0.67;;;;;;;;;;5042641;28;20412;-46
2023/09/20 14:52:58;;;;;;;4.05;0.77;;;;;;;;;;5039060;28;20044;-49
2023/09/20 14:55:28;;;;;;;5.00;0.82;;;;;;;;;;5039848;28;20245;-48
2023/09/20 14:57:58;;;;;;;5.13;0.60;;;;;;;;;;5044827;28;20456;-50
2023/09/20 15:00:29;;;;;;;7.03;0.53;;;;;;;;;;4678920;28;10000729;-46
2023/09/20 15:02:59;;;;;;;3.40;0.40;;;;;;;;;;5039314;28;20067;-46
2023/09/20 15:05:27;;;;;;;2.97;0.45;;;;;;;;;;5049578;28;20506;-47
2023/09/20 15:07:57;;;;;;;4.13;0.70;;;;;;;;;;5031860;28;20036;-46
2023/09/20 15:10:26;;;;;;;3.23;0.60;;;;;;;;;;5031847;28;20043;-54
2023/09/20 15:12:57;;;;;;;6.15;0.50;;;;;;;;;;5053584;28;20036;-47
2023/09/20 15:15:27;;;;;;;2.55;0.40;;;;;;;;;;5044920;28;20051;-48
2023/09/20 15:17:55;;;;;;;3.38;0.50;;;;;;;;;;5055936;28;20044;-49
2023/09/20 15:20:26;;;;;;;4.53;0.70;;;;;;;;;;5038281;28;20035;-47
2023/09/20 15:22:55;;;;;;;3.70;0.57;;;;;;;;;;5041558;28;20059;-49
2023/09/20 15:25:24;;;;;;;3.75;0.50;;;;;;;;;;5043865;28;20054;-52
2023/09/20 15:27:54;;;;;;;4.88;0.50;;;;;;;;;;5043209;28;20044;-47